sensor_id;sensor_type;location;lat;lon;timestamp;P1;durP1;ratioP1;P2;durP2;ratioP2
51438;SDS011;38816;51.142;-0.974;2022-09-09T00:03:31;22.85;;;3.47;;
51438;SDS011;38816;51.142;-0.974;2022-09-09T00:06:14;17.05;;;2.65;;
51438;SDS011;38816;51.142;-0.974;2022-09-09T00:11:29;17.45;;;2.90;;
51438;SDS011;38816;51.142;-0.974;2022-09-09T00:17:00;17.33;;;2.63;;
51438;SDS011;38816;51.142;-0.974;2022-09-09T00:19:35;9.85;;;2.30;;
51438;SDS011;38816;51.142;-0.974;2022-09-09T00:22:18;13.82;;;1.92;;
51438;SDS011;38816;51.142;-0.974;2022-09-09T00:24:45;8.25;;;2.20;;
51438;SDS011;38816;51.142;-0.974;2022-09-09T00:27:19;7.05;;;2.05;;
51438;SDS011;38816;51.142;-0.974;2022-09-09T00:32:53;14.88;;;2.78;;
51438;SDS011;38816;51.142;-0.974;2022-09-09T00:35:34;10.68;;;2.25;;
51438;SDS011;38816;51.142;-0.974;2022-09-09T00:38:16;9.40;;;2.38;;
51438;SDS011;38816;51.142;-0.974;2022-09-09T00:40:52;12.10;;;2.28;;
51438;SDS011;38816;51.142;-0.974;2022-09-09T00:43:38;13.73;;;2.40;;
51438;SDS011;38816;51.142;-0.974;2022-09-09T00:49:00;7.38;;;1.98;;
51438;SDS011;38816;51.142;-0.974;2022-09-09T00:59:52;15.98;;;2.75;;
51438;SDS011;38816;51.142;-0.974;2022-09-09T01:04:53;5.30;;;1.80;;
51438;SDS011;38816;51.142;-0.974;2022-09-09T01:07:19;11.40;;;2.20;;
51438;SDS011;38816;51.142;-0.974;2022-09-09T01:12:38;9.88;;;2.33;;
51438;SDS011;38816;51.142;-0.974;2022-09-09T01:15:08;14.85;;;2.30;;
51438;SDS011;38816;51.142;-0.974;2022-09-09T01:28:48;10.07;;;2.15;;
51438;SDS011;38816;51.142;-0.974;2022-09-09T01:31:19;9.25;;;2.33;;
51438;SDS011;38816;51.142;-0.974;2022-09-09T01:33:48;9.05;;;2.22;;
51438;SDS011;38816;51.142;-0.974;2022-09-09T01:36:24;12.77;;;2.50;;
51438;SDS011;38816;51.142;-0.974;2022-09-09T01:38:54;8.73;;;2.17;;
51438;SDS011;38816;51.142;-0.974;2022-09-09T01:41:20;10.93;;;2.28;;
51438;SDS011;38816;51.142;-0.974;2022-09-09T01:43:45;7.75;;;2.38;;
51438;SDS011;38816;51.142;-0.974;2022-09-09T01:46:11;7.68;;;2.22;;
51438;SDS011;38816;51.142;-0.974;2022-09-09T01:48:37;7.00;;;2.22;;
51438;SDS011;38816;51.142;-0.974;2022-09-09T01:51:03;7.78;;;2.55;;
51438;SDS011;38816;51.142;-0.974;2022-09-09T01:53:28;10.38;;;2.88;;
51438;SDS011;38816;51.142;-0.974;2022-09-09T01:56:02;10.15;;;2.45;;
51438;SDS011;38816;51.142;-0.974;2022-09-09T02:02:02;5.78;;;2.22;;
51438;SDS011;38816;51.142;-0.974;2022-09-09T02:04:41;8.15;;;2.30;;
51438;SDS011;38816;51.142;-0.974;2022-09-09T02:10:01;8.82;;;2.08;;
51438;SDS011;38816;51.142;-0.974;2022-09-09T02:13:16;10.48;;;1.90;;
51438;SDS011;38816;51.142;-0.974;2022-09-09T02:15:55;6.88;;;1.90;;
51438;SDS011;38816;51.142;-0.974;2022-09-09T02:18:28;8.18;;;2.70;;
51438;SDS011;38816;51.142;-0.974;2022-09-09T02:20:59;10.40;;;2.40;;
51438;SDS011;38816;51.142;-0.974;2022-09-09T02:23:27;4.80;;;2.30;;
51438;SDS011;38816;51.142;-0.974;2022-09-09T02:25:54;14.32;;;2.70;;
51438;SDS011;38816;51.142;-0.974;2022-09-09T02:28:23;6.30;;;2.50;;
51438;SDS011;38816;51.142;-0.974;2022-09-09T02:30:52;9.25;;;2.55;;
51438;SDS011;38816;51.142;-0.974;2022-09-09T02:33:20;7.93;;;2.72;;
51438;SDS011;38816;51.142;-0.974;2022-09-09T02:35:52;8.53;;;2.73;;
51438;SDS011;38816;51.142;-0.974;2022-09-09T02:38:21;8.50;;;2.72;;
51438;SDS011;38816;51.142;-0.974;2022-09-09T02:40:51;5.97;;;2.97;;
51438;SDS011;38816;51.142;-0.974;2022-09-09T02:43:17;7.35;;;2.38;;
51438;SDS011;38816;51.142;-0.974;2022-09-09T02:45:52;6.75;;;2.97;;
51438;SDS011;38816;51.142;-0.974;2022-09-09T02:54:02;7.07;;;2.72;;
51438;SDS011;38816;51.142;-0.974;2022-09-09T02:56:37;10.68;;;2.60;;
51438;SDS011;38816;51.142;-0.974;2022-09-09T02:59:09;8.90;;;3.15;;
51438;SDS011;38816;51.142;-0.974;2022-09-09T03:01:36;11.52;;;2.78;;
51438;SDS011;38816;51.142;-0.974;2022-09-09T03:04:03;7.47;;;2.90;;
51438;SDS011;38816;51.142;-0.974;2022-09-09T03:06:30;7.30;;;2.97;;
51438;SDS011;38816;51.142;-0.974;2022-09-09T03:08:55;11.60;;;3.40;;
51438;SDS011;38816;51.142;-0.974;2022-09-09T03:11:22;11.60;;;3.08;;
51438;SDS011;38816;51.142;-0.974;2022-09-09T03:13:47;9.95;;;3.42;;
51438;SDS011;38816;51.142;-0.974;2022-09-09T03:16:13;7.85;;;3.00;;
51438;SDS011;38816;51.142;-0.974;2022-09-09T03:18:40;14.50;;;3.88;;
51438;SDS011;38816;51.142;-0.974;2022-09-09T03:21:05;10.07;;;4.03;;
51438;SDS011;38816;51.142;-0.974;2022-09-09T03:23:31;7.60;;;3.90;;
51438;SDS011;38816;51.142;-0.974;2022-09-09T03:25:57;7.72;;;3.50;;
51438;SDS011;38816;51.142;-0.974;2022-09-09T03:28:23;6.63;;;3.25;;
51438;SDS011;38816;51.142;-0.974;2022-09-09T03:30:57;8.45;;;3.80;;
51438;SDS011;38816;51.142;-0.974;2022-09-09T03:33:24;9.50;;;3.67;;
51438;SDS011;38816;51.142;-0.974;2022-09-09T03:35:49;8.95;;;3.97;;
51438;SDS011;38816;51.142;-0.974;2022-09-09T03:38:15;15.68;;;4.07;;
51438;SDS011;38816;51.142;-0.974;2022-09-09T03:40:48;13.07;;;4.35;;
51438;SDS011;38816;51.142;-0.974;2022-09-09T03:43:20;7.32;;;4.70;;
51438;SDS011;38816;51.142;-0.974;2022-09-09T03:45:49;11.57;;;5.20;;
51438;SDS011;38816;51.142;-0.974;2022-09-09T03:48:15;10.88;;;4.65;;
51438;SDS011;38816;51.142;-0.974;2022-09-09T03:50:48;10.00;;;4.88;;
51438;SDS011;38816;51.142;-0.974;2022-09-09T03:53:15;9.02;;;4.65;;
51438;SDS011;38816;51.142;-0.974;2022-09-09T03:55:48;10.25;;;4.65;;
51438;SDS011;38816;51.142;-0.974;2022-09-09T03:58:17;11.85;;;5.05;;
51438;SDS011;38816;51.142;-0.974;2022-09-09T04:00:47;10.77;;;4.93;;
51438;SDS011;38816;51.142;-0.974;2022-09-09T04:03:18;12.05;;;5.43;;
51438;SDS011;38816;51.142;-0.974;2022-09-09T04:05:44;11.68;;;4.95;;
51438;SDS011;38816;51.142;-0.974;2022-09-09T04:08:09;9.90;;;4.85;;
51438;SDS011;38816;51.142;-0.974;2022-09-09T04:10:35;8.00;;;5.25;;
51438;SDS011;38816;51.142;-0.974;2022-09-09T04:13:03;15.20;;;5.35;;
51438;SDS011;38816;51.142;-0.974;2022-09-09T04:15:30;12.75;;;5.85;;
51438;SDS011;38816;51.142;-0.974;2022-09-09T04:17:55;13.15;;;6.28;;
51438;SDS011;38816;51.142;-0.974;2022-09-09T04:20:21;14.57;;;5.68;;
51438;SDS011;38816;51.142;-0.974;2022-09-09T04:22:47;11.07;;;5.72;;
51438;SDS011;38816;51.142;-0.974;2022-09-09T04:25:12;12.38;;;5.90;;
51438;SDS011;38816;51.142;-0.974;2022-09-09T04:27:38;17.60;;;6.30;;
51438;SDS011;38816;51.142;-0.974;2022-09-09T04:30:03;17.70;;;6.60;;
51438;SDS011;38816;51.142;-0.974;2022-09-09T04:32:31;15.35;;;6.47;;
51438;SDS011;38816;51.142;-0.974;2022-09-09T04:34:57;13.65;;;7.03;;
51438;SDS011;38816;51.142;-0.974;2022-09-09T04:37:23;13.73;;;6.55;;
51438;SDS011;38816;51.142;-0.974;2022-09-09T04:39:49;16.52;;;6.15;;
51438;SDS011;38816;51.142;-0.974;2022-09-09T04:42:15;13.48;;;6.45;;
51438;SDS011;38816;51.142;-0.974;2022-09-09T04:44:42;18.17;;;6.47;;
51438;SDS011;38816;51.142;-0.974;2022-09-09T04:47:08;18.42;;;6.53;;
51438;SDS011;38816;51.142;-0.974;2022-09-09T04:49:34;10.90;;;6.40;;
51438;SDS011;38816;51.142;-0.974;2022-09-09T04:52:00;18.30;;;7.35;;
51438;SDS011;38816;51.142;-0.974;2022-09-09T04:54:26;15.82;;;7.43;;
51438;SDS011;38816;51.142;-0.974;2022-09-09T04:56:53;16.10;;;7.55;;
51438;SDS011;38816;51.142;-0.974;2022-09-09T04:59:19;16.48;;;7.65;;
51438;SDS011;38816;51.142;-0.974;2022-09-09T05:01:45;11.40;;;7.07;;
51438;SDS011;38816;51.142;-0.974;2022-09-09T05:04:11;16.88;;;7.50;;
51438;SDS011;38816;51.142;-0.974;2022-09-09T05:06:36;16.50;;;7.35;;
51438;SDS011;38816;51.142;-0.974;2022-09-09T05:09:02;14.25;;;7.68;;
51438;SDS011;38816;51.142;-0.974;2022-09-09T05:11:29;16.25;;;7.45;;
51438;SDS011;38816;51.142;-0.974;2022-09-09T05:13:57;13.73;;;7.20;;
51438;SDS011;38816;51.142;-0.974;2022-09-09T05:16:22;12.93;;;6.38;;
51438;SDS011;38816;51.142;-0.974;2022-09-09T05:18:48;11.93;;;6.43;;
51438;SDS011;38816;51.142;-0.974;2022-09-09T05:21:16;17.80;;;6.97;;
51438;SDS011;38816;51.142;-0.974;2022-09-09T05:23:42;15.85;;;7.00;;
51438;SDS011;38816;51.142;-0.974;2022-09-09T05:26:14;11.90;;;6.43;;
51438;SDS011;38816;51.142;-0.974;2022-09-09T05:28:41;16.77;;;6.65;;
51438;SDS011;38816;51.142;-0.974;2022-09-09T05:31:08;14.32;;;7.03;;
51438;SDS011;38816;51.142;-0.974;2022-09-09T05:33:36;14.13;;;6.90;;
51438;SDS011;38816;51.142;-0.974;2022-09-09T05:36:06;14.15;;;6.80;;
51438;SDS011;38816;51.142;-0.974;2022-09-09T05:38:34;15.38;;;7.10;;
51438;SDS011;38816;51.142;-0.974;2022-09-09T05:41:00;10.18;;;5.78;;
51438;SDS011;38816;51.142;-0.974;2022-09-09T05:43:28;10.73;;;5.88;;
51438;SDS011;38816;51.142;-0.974;2022-09-09T05:48:29;9.68;;;5.50;;
51438;SDS011;38816;51.142;-0.974;2022-09-09T05:50:57;9.90;;;5.20;;
51438;SDS011;38816;51.142;-0.974;2022-09-09T05:53:23;10.43;;;5.15;;
51438;SDS011;38816;51.142;-0.974;2022-09-09T05:55:48;10.35;;;4.60;;
51438;SDS011;38816;51.142;-0.974;2022-09-09T05:58:13;6.65;;;4.65;;
51438;SDS011;38816;51.142;-0.974;2022-09-09T06:00:41;7.82;;;4.40;;
51438;SDS011;38816;51.142;-0.974;2022-09-09T06:03:10;9.45;;;4.22;;
51438;SDS011;38816;51.142;-0.974;2022-09-09T06:05:36;6.88;;;4.20;;
51438;SDS011;38816;51.142;-0.974;2022-09-09T06:08:02;6.30;;;4.15;;
51438;SDS011;38816;51.142;-0.974;2022-09-09T06:10:28;8.65;;;4.65;;
51438;SDS011;38816;51.142;-0.974;2022-09-09T06:12:53;9.90;;;5.05;;
51438;SDS011;38816;51.142;-0.974;2022-09-09T06:15:18;8.45;;;4.78;;
51438;SDS011;38816;51.142;-0.974;2022-09-09T06:17:44;10.60;;;4.75;;
51438;SDS011;38816;51.142;-0.974;2022-09-09T06:20:10;13.68;;;5.22;;
51438;SDS011;38816;51.142;-0.974;2022-09-09T06:22:39;6.97;;;5.20;;
51438;SDS011;38816;51.142;-0.974;2022-09-09T06:25:06;7.68;;;5.15;;
51438;SDS011;38816;51.142;-0.974;2022-09-09T06:27:32;8.75;;;4.82;;
51438;SDS011;38816;51.142;-0.974;2022-09-09T06:29:58;14.38;;;5.65;;
51438;SDS011;38816;51.142;-0.974;2022-09-09T06:32:23;9.23;;;5.32;;
51438;SDS011;38816;51.142;-0.974;2022-09-09T06:34:49;10.60;;;5.65;;
51438;SDS011;38816;51.142;-0.974;2022-09-09T06:37:14;14.85;;;5.75;;
51438;SDS011;38816;51.142;-0.974;2022-09-09T06:39:40;14.88;;;6.03;;
51438;SDS011;38816;51.142;-0.974;2022-09-09T06:42:05;15.32;;;5.90;;
51438;SDS011;38816;51.142;-0.974;2022-09-09T06:44:33;10.73;;;6.00;;
51438;SDS011;38816;51.142;-0.974;2022-09-09T06:46:58;10.82;;;5.65;;
51438;SDS011;38816;51.142;-0.974;2022-09-09T06:49:24;10.60;;;5.85;;
51438;SDS011;38816;51.142;-0.974;2022-09-09T06:51:49;13.35;;;5.43;;
51438;SDS011;38816;51.142;-0.974;2022-09-09T06:54:15;11.43;;;5.95;;
51438;SDS011;38816;51.142;-0.974;2022-09-09T06:56:41;12.50;;;5.82;;
51438;SDS011;38816;51.142;-0.974;2022-09-09T06:59:08;10.77;;;5.53;;
51438;SDS011;38816;51.142;-0.974;2022-09-09T07:01:35;12.82;;;4.93;;
51438;SDS011;38816;51.142;-0.974;2022-09-09T07:04:02;8.90;;;5.10;;
51438;SDS011;38816;51.142;-0.974;2022-09-09T07:06:32;9.98;;;5.03;;
51438;SDS011;38816;51.142;-0.974;2022-09-09T07:09:00;13.30;;;4.35;;
51438;SDS011;38816;51.142;-0.974;2022-09-09T07:11:31;9.00;;;4.63;;
51438;SDS011;38816;51.142;-0.974;2022-09-09T07:14:02;7.80;;;4.43;;
51438;SDS011;38816;51.142;-0.974;2022-09-09T07:16:28;9.25;;;4.30;;
51438;SDS011;38816;51.142;-0.974;2022-09-09T07:18:54;8.60;;;4.32;;
51438;SDS011;38816;51.142;-0.974;2022-09-09T07:21:23;13.18;;;4.22;;
51438;SDS011;38816;51.142;-0.974;2022-09-09T07:23:51;5.93;;;3.72;;
51438;SDS011;38816;51.142;-0.974;2022-09-09T07:26:18;6.07;;;3.50;;
51438;SDS011;38816;51.142;-0.974;2022-09-09T07:28:45;5.82;;;3.38;;
51438;SDS011;38816;51.142;-0.974;2022-09-09T07:31:16;6.28;;;3.20;;
51438;SDS011;38816;51.142;-0.974;2022-09-09T07:33:43;7.90;;;3.17;;
51438;SDS011;38816;51.142;-0.974;2022-09-09T07:36:12;7.85;;;3.30;;
51438;SDS011;38816;51.142;-0.974;2022-09-09T07:38:45;5.95;;;2.97;;
51438;SDS011;38816;51.142;-0.974;2022-09-09T07:41:19;6.63;;;2.47;;
51438;SDS011;38816;51.142;-0.974;2022-09-09T07:43:45;5.47;;;2.40;;
51438;SDS011;38816;51.142;-0.974;2022-09-09T07:46:13;4.25;;;2.33;;
51438;SDS011;38816;51.142;-0.974;2022-09-09T07:48:44;4.53;;;1.67;;
51438;SDS011;38816;51.142;-0.974;2022-09-09T07:51:12;4.15;;;2.15;;
51438;SDS011;38816;51.142;-0.974;2022-09-09T07:53:43;8.53;;;2.20;;
51438;SDS011;38816;51.142;-0.974;2022-09-09T07:56:11;4.18;;;1.95;;
51438;SDS011;38816;51.142;-0.974;2022-09-09T07:58:42;7.43;;;1.92;;
51438;SDS011;38816;51.142;-0.974;2022-09-09T08:01:10;7.53;;;2.15;;
51438;SDS011;38816;51.142;-0.974;2022-09-09T08:03:37;3.13;;;1.75;;
51438;SDS011;38816;51.142;-0.974;2022-09-09T08:06:03;5.90;;;1.80;;
51438;SDS011;38816;51.142;-0.974;2022-09-09T08:08:32;5.53;;;2.20;;
51438;SDS011;38816;51.142;-0.974;2022-09-09T08:11:02;7.63;;;1.77;;
51438;SDS011;38816;51.142;-0.974;2022-09-09T08:13:30;6.72;;;2.22;;
51438;SDS011;38816;51.142;-0.974;2022-09-09T08:16:03;4.47;;;1.58;;
51438;SDS011;38816;51.142;-0.974;2022-09-09T08:18:29;4.30;;;1.73;;
51438;SDS011;38816;51.142;-0.974;2022-09-09T08:20:55;3.42;;;1.30;;
51438;SDS011;38816;51.142;-0.974;2022-09-09T08:23:20;4.13;;;1.45;;
51438;SDS011;38816;51.142;-0.974;2022-09-09T08:25:46;5.03;;;1.80;;
51438;SDS011;38816;51.142;-0.974;2022-09-09T08:28:13;3.92;;;1.10;;
51438;SDS011;38816;51.142;-0.974;2022-09-09T08:30:39;4.63;;;1.42;;
51438;SDS011;38816;51.142;-0.974;2022-09-09T08:33:04;8.25;;;1.60;;
51438;SDS011;38816;51.142;-0.974;2022-09-09T08:35:30;4.60;;;1.27;;
51438;SDS011;38816;51.142;-0.974;2022-09-09T08:37:57;3.65;;;1.08;;
51438;SDS011;38816;51.142;-0.974;2022-09-09T08:40:25;5.53;;;1.45;;
51438;SDS011;38816;51.142;-0.974;2022-09-09T08:42:54;3.72;;;1.17;;
51438;SDS011;38816;51.142;-0.974;2022-09-09T08:50:44;3.95;;;1.25;;
51438;SDS011;38816;51.142;-0.974;2022-09-09T08:53:18;5.63;;;0.93;;
51438;SDS011;38816;51.142;-0.974;2022-09-09T08:55:47;4.30;;;1.13;;
51438;SDS011;38816;51.142;-0.974;2022-09-09T09:09:02;6.82;;;1.00;;
51438;SDS011;38816;51.142;-0.974;2022-09-09T09:11:47;3.50;;;0.73;;
51438;SDS011;38816;51.142;-0.974;2022-09-09T09:14:20;2.42;;;0.90;;
51438;SDS011;38816;51.142;-0.974;2022-09-09T09:16:54;3.75;;;1.00;;
51438;SDS011;38816;51.142;-0.974;2022-09-09T09:19:23;2.58;;;0.82;;
51438;SDS011;38816;51.142;-0.974;2022-09-09T09:27:14;6.50;;;0.95;;
51438;SDS011;38816;51.142;-0.974;2022-09-09T09:29:43;1.77;;;0.60;;
51438;SDS011;38816;51.142;-0.974;2022-09-09T09:32:10;4.05;;;0.80;;
51438;SDS011;38816;51.142;-0.974;2022-09-09T09:34:41;3.63;;;0.73;;
51438;SDS011;38816;51.142;-0.974;2022-09-09T09:37:12;4.32;;;0.90;;
51438;SDS011;38816;51.142;-0.974;2022-09-09T09:39:45;4.28;;;0.65;;
51438;SDS011;38816;51.142;-0.974;2022-09-09T09:42:12;2.42;;;0.75;;
51438;SDS011;38816;51.142;-0.974;2022-09-09T09:44:39;4.03;;;0.70;;
51438;SDS011;38816;51.142;-0.974;2022-09-09T09:47:23;7.60;;;1.33;;
51438;SDS011;38816;51.142;-0.974;2022-09-09T09:49:56;2.65;;;0.70;;
51438;SDS011;38816;51.142;-0.974;2022-09-09T09:52:26;3.30;;;0.70;;
51438;SDS011;38816;51.142;-0.974;2022-09-09T09:54:53;0.75;;;0.50;;
51438;SDS011;38816;51.142;-0.974;2022-09-09T09:57:24;2.53;;;0.63;;
51438;SDS011;38816;51.142;-0.974;2022-09-09T10:02:40;3.67;;;0.90;;
51438;SDS011;38816;51.142;-0.974;2022-09-09T10:05:29;6.05;;;0.70;;
51438;SDS011;38816;51.142;-0.974;2022-09-09T10:08:03;2.55;;;0.85;;
51438;SDS011;38816;51.142;-0.974;2022-09-09T10:14:13;3.17;;;1.00;;
51438;SDS011;38816;51.142;-0.974;2022-09-09T10:18:59;3.17;;;0.80;;
51438;SDS011;38816;51.142;-0.974;2022-09-09T10:37:50;1.50;;;0.65;;
51438;SDS011;38816;51.142;-0.974;2022-09-09T10:49:21;3.95;;;0.52;;
51438;SDS011;38816;51.142;-0.974;2022-09-09T10:51:38;1.42;;;0.40;;
51438;SDS011;38816;51.142;-0.974;2022-09-09T10:56:50;1.67;;;0.43;;
51438;SDS011;38816;51.142;-0.974;2022-09-09T11:01:58;5.55;;;0.60;;
51438;SDS011;38816;51.142;-0.974;2022-09-09T11:04:35;2.88;;;0.65;;
51438;SDS011;38816;51.142;-0.974;2022-09-09T11:07:08;2.67;;;0.60;;
51438;SDS011;38816;51.142;-0.974;2022-09-09T11:09:40;1.25;;;0.50;;
51438;SDS011;38816;51.142;-0.974;2022-09-09T11:12:15;1.70;;;0.75;;
51438;SDS011;38816;51.142;-0.974;2022-09-09T11:14:49;0.75;;;0.50;;
51438;SDS011;38816;51.142;-0.974;2022-09-09T11:17:24;2.17;;;0.70;;
51438;SDS011;38816;51.142;-0.974;2022-09-09T11:19:56;4.93;;;0.80;;
51438;SDS011;38816;51.142;-0.974;2022-09-09T11:27:40;1.42;;;0.70;;
51438;SDS011;38816;51.142;-0.974;2022-09-09T11:32:56;2.13;;;0.77;;
51438;SDS011;38816;51.142;-0.974;2022-09-09T11:38:38;2.30;;;0.52;;
51438;SDS011;38816;51.142;-0.974;2022-09-09T11:41:11;1.42;;;0.60;;
51438;SDS011;38816;51.142;-0.974;2022-09-09T11:43:43;2.15;;;0.70;;
51438;SDS011;38816;51.142;-0.974;2022-09-09T11:46:13;3.28;;;0.68;;
51438;SDS011;38816;51.142;-0.974;2022-09-09T11:48:43;2.63;;;0.95;;
51438;SDS011;38816;51.142;-0.974;2022-09-09T11:56:32;1.23;;;0.70;;
51438;SDS011;38816;51.142;-0.974;2022-09-09T11:59:03;2.80;;;1.02;;
51438;SDS011;38816;51.142;-0.974;2022-09-09T12:01:37;3.05;;;1.00;;
51438;SDS011;38816;51.142;-0.974;2022-09-09T12:09:17;3.75;;;1.10;;
51438;SDS011;38816;51.142;-0.974;2022-09-09T12:14:19;1.75;;;1.00;;
51438;SDS011;38816;51.142;-0.974;2022-09-09T12:16:46;2.25;;;1.20;;
51438;SDS011;38816;51.142;-0.974;2022-09-09T12:22:20;2.80;;;0.90;;
51438;SDS011;38816;51.142;-0.974;2022-09-09T12:24:42;2.35;;;0.93;;
51438;SDS011;38816;51.142;-0.974;2022-09-09T12:27:16;3.42;;;0.90;;
51438;SDS011;38816;51.142;-0.974;2022-09-09T12:29:55;3.15;;;0.73;;
51438;SDS011;38816;51.142;-0.974;2022-09-09T12:32:28;2.33;;;0.60;;
51438;SDS011;38816;51.142;-0.974;2022-09-09T12:34:55;3.30;;;0.80;;
51438;SDS011;38816;51.142;-0.974;2022-09-09T12:37:42;1.27;;;0.60;;
51438;SDS011;38816;51.142;-0.974;2022-09-09T12:40:24;2.95;;;1.00;;
51438;SDS011;38816;51.142;-0.974;2022-09-09T12:42:51;1.75;;;0.80;;
51438;SDS011;38816;51.142;-0.974;2022-09-09T12:45:21;1.85;;;0.70;;
51438;SDS011;38816;51.142;-0.974;2022-09-09T12:47:59;3.28;;;0.93;;
51438;SDS011;38816;51.142;-0.974;2022-09-09T12:50:31;1.42;;;0.75;;
51438;SDS011;38816;51.142;-0.974;2022-09-09T12:53:03;2.03;;;0.70;;
51438;SDS011;38816;51.142;-0.974;2022-09-09T12:55:48;1.80;;;0.80;;
51438;SDS011;38816;51.142;-0.974;2022-09-09T12:58:15;2.80;;;0.47;;
51438;SDS011;38816;51.142;-0.974;2022-09-09T13:00:53;2.40;;;0.70;;
51438;SDS011;38816;51.142;-0.974;2022-09-09T13:03:22;1.23;;;0.73;;
51438;SDS011;38816;51.142;-0.974;2022-09-09T13:05:49;4.75;;;1.02;;
51438;SDS011;38816;51.142;-0.974;2022-09-09T13:08:16;4.68;;;0.82;;
51438;SDS011;38816;51.142;-0.974;2022-09-09T13:13:14;4.93;;;1.00;;
51438;SDS011;38816;51.142;-0.974;2022-09-09T13:15:48;5.47;;;0.60;;
51438;SDS011;38816;51.142;-0.974;2022-09-09T13:18:20;1.85;;;0.70;;
51438;SDS011;38816;51.142;-0.974;2022-09-09T13:20:48;2.05;;;0.77;;
51438;SDS011;38816;51.142;-0.974;2022-09-09T13:23:15;1.17;;;0.70;;
51438;SDS011;38816;51.142;-0.974;2022-09-09T13:25:54;1.08;;;0.77;;
51438;SDS011;38816;51.142;-0.974;2022-09-09T13:28:27;3.67;;;0.82;;
51438;SDS011;38816;51.142;-0.974;2022-09-09T13:33:33;1.20;;;0.63;;
51438;SDS011;38816;51.142;-0.974;2022-09-09T13:36:02;1.02;;;0.60;;
51438;SDS011;38816;51.142;-0.974;2022-09-09T13:38:35;2.50;;;0.85;;
51438;SDS011;38816;51.142;-0.974;2022-09-09T13:41:24;1.75;;;0.63;;
51438;SDS011;38816;51.142;-0.974;2022-09-09T13:44:00;1.48;;;0.60;;
51438;SDS011;38816;51.142;-0.974;2022-09-09T13:46:37;2.25;;;0.70;;
51438;SDS011;38816;51.142;-0.974;2022-09-09T13:51:35;0.85;;;0.40;;
51438;SDS011;38816;51.142;-0.974;2022-09-09T13:54:02;2.97;;;0.80;;
51438;SDS011;38816;51.142;-0.974;2022-09-09T13:56:31;2.85;;;0.45;;
51438;SDS011;38816;51.142;-0.974;2022-09-09T13:58:57;0.77;;;0.45;;
51438;SDS011;38816;51.142;-0.974;2022-09-09T14:01:23;2.42;;;0.50;;
51438;SDS011;38816;51.142;-0.974;2022-09-09T14:03:48;0.55;;;0.43;;
51438;SDS011;38816;51.142;-0.974;2022-09-09T14:06:14;1.35;;;0.50;;
51438;SDS011;38816;51.142;-0.974;2022-09-09T14:08:39;2.33;;;0.40;;
51438;SDS011;38816;51.142;-0.974;2022-09-09T14:11:05;0.22;;;0.20;;
51438;SDS011;38816;51.142;-0.974;2022-09-09T14:13:31;1.10;;;0.40;;
51438;SDS011;38816;51.142;-0.974;2022-09-09T14:15:57;0.63;;;0.40;;
51438;SDS011;38816;51.142;-0.974;2022-09-09T14:18:22;2.30;;;0.52;;
51438;SDS011;38816;51.142;-0.974;2022-09-09T14:20:50;0.52;;;0.30;;
51438;SDS011;38816;51.142;-0.974;2022-09-09T14:23:16;2.92;;;0.50;;
51438;SDS011;38816;51.142;-0.974;2022-09-09T14:25:42;2.35;;;0.30;;
51438;SDS011;38816;51.142;-0.974;2022-09-09T14:28:11;0.32;;;0.32;;
51438;SDS011;38816;51.142;-0.974;2022-09-09T14:30:42;1.85;;;0.30;;
51438;SDS011;38816;51.142;-0.974;2022-09-09T14:33:09;0.95;;;0.30;;
51438;SDS011;38816;51.142;-0.974;2022-09-09T14:35:36;3.33;;;0.50;;
51438;SDS011;38816;51.142;-0.974;2022-09-09T14:38:02;1.33;;;0.35;;
51438;SDS011;38816;51.142;-0.974;2022-09-09T14:40:28;0.75;;;0.38;;
51438;SDS011;38816;51.142;-0.974;2022-09-09T14:42:54;2.33;;;0.47;;
51438;SDS011;38816;51.142;-0.974;2022-09-09T14:45:21;0.77;;;0.38;;
51438;SDS011;38816;51.142;-0.974;2022-09-09T14:47:49;3.63;;;0.50;;
51438;SDS011;38816;51.142;-0.974;2022-09-09T14:50:15;4.68;;;0.68;;
51438;SDS011;38816;51.142;-0.974;2022-09-09T14:52:41;3.00;;;0.60;;
51438;SDS011;38816;51.142;-0.974;2022-09-09T14:55:06;1.08;;;0.65;;
51438;SDS011;38816;51.142;-0.974;2022-09-09T14:57:32;2.40;;;0.98;;
51438;SDS011;38816;51.142;-0.974;2022-09-09T14:59:59;3.13;;;0.80;;
51438;SDS011;38816;51.142;-0.974;2022-09-09T15:02:25;2.50;;;0.80;;
51438;SDS011;38816;51.142;-0.974;2022-09-09T15:04:50;5.20;;;0.80;;
51438;SDS011;38816;51.142;-0.974;2022-09-09T15:07:17;2.78;;;0.80;;
51438;SDS011;38816;51.142;-0.974;2022-09-09T15:09:44;3.60;;;1.20;;
51438;SDS011;38816;51.142;-0.974;2022-09-09T15:12:10;2.03;;;0.63;;
51438;SDS011;38816;51.142;-0.974;2022-09-09T15:14:35;3.25;;;0.60;;
51438;SDS011;38816;51.142;-0.974;2022-09-09T15:17:01;7.13;;;0.70;;
51438;SDS011;38816;51.142;-0.974;2022-09-09T15:19:26;0.80;;;0.40;;
51438;SDS011;38816;51.142;-0.974;2022-09-09T15:21:51;2.08;;;0.73;;
51438;SDS011;38816;51.142;-0.974;2022-09-09T15:24:17;0.93;;;0.50;;
51438;SDS011;38816;51.142;-0.974;2022-09-09T15:26:42;4.22;;;0.60;;
51438;SDS011;38816;51.142;-0.974;2022-09-09T15:29:08;3.13;;;0.70;;
51438;SDS011;38816;51.142;-0.974;2022-09-09T15:31:34;5.25;;;0.80;;
51438;SDS011;38816;51.142;-0.974;2022-09-09T15:34:01;1.63;;;0.70;;
51438;SDS011;38816;51.142;-0.974;2022-09-09T15:36:28;1.88;;;0.82;;
51438;SDS011;38816;51.142;-0.974;2022-09-09T15:38:59;1.50;;;0.47;;
51438;SDS011;38816;51.142;-0.974;2022-09-09T15:41:26;3.47;;;0.90;;
51438;SDS011;38816;51.142;-0.974;2022-09-09T15:43:53;2.35;;;0.73;;
51438;SDS011;38816;51.142;-0.974;2022-09-09T15:46:24;2.28;;;0.75;;
51438;SDS011;38816;51.142;-0.974;2022-09-09T15:48:57;1.65;;;0.70;;
51438;SDS011;38816;51.142;-0.974;2022-09-09T15:51:24;2.72;;;0.70;;
51438;SDS011;38816;51.142;-0.974;2022-09-09T15:53:57;4.65;;;0.90;;
51438;SDS011;38816;51.142;-0.974;2022-09-09T15:58:50;5.68;;;0.85;;
51438;SDS011;38816;51.142;-0.974;2022-09-09T16:01:16;4.28;;;1.02;;
51438;SDS011;38816;51.142;-0.974;2022-09-09T16:03:44;3.88;;;0.80;;
51438;SDS011;38816;51.142;-0.974;2022-09-09T16:06:11;3.03;;;0.98;;
51438;SDS011;38816;51.142;-0.974;2022-09-09T16:08:42;4.72;;;0.80;;
51438;SDS011;38816;51.142;-0.974;2022-09-09T16:11:11;3.60;;;1.13;;
51438;SDS011;38816;51.142;-0.974;2022-09-09T16:13:39;2.60;;;1.10;;
51438;SDS011;38816;51.142;-0.974;2022-09-09T16:16:06;4.07;;;1.27;;
51438;SDS011;38816;51.142;-0.974;2022-09-09T16:21:01;2.13;;;1.02;;
51438;SDS011;38816;51.142;-0.974;2022-09-09T16:23:28;3.90;;;1.05;;
51438;SDS011;38816;51.142;-0.974;2022-09-09T16:25:54;2.45;;;1.00;;
51438;SDS011;38816;51.142;-0.974;2022-09-09T16:28:20;2.50;;;0.82;;
51438;SDS011;38816;51.142;-0.974;2022-09-09T16:30:46;2.60;;;0.82;;
51438;SDS011;38816;51.142;-0.974;2022-09-09T16:33:11;2.22;;;0.80;;
51438;SDS011;38816;51.142;-0.974;2022-09-09T16:35:39;8.38;;;1.05;;
51438;SDS011;38816;51.142;-0.974;2022-09-09T16:38:05;5.07;;;1.17;;
51438;SDS011;38816;51.142;-0.974;2022-09-09T16:40:33;5.35;;;1.23;;
51438;SDS011;38816;51.142;-0.974;2022-09-09T16:43:03;3.60;;;1.00;;
51438;SDS011;38816;51.142;-0.974;2022-09-09T16:45:28;4.28;;;1.17;;
51438;SDS011;38816;51.142;-0.974;2022-09-09T16:47:55;2.20;;;1.00;;
51438;SDS011;38816;51.142;-0.974;2022-09-09T16:50:20;3.65;;;1.10;;
51438;SDS011;38816;51.142;-0.974;2022-09-09T16:52:46;2.88;;;0.93;;
51438;SDS011;38816;51.142;-0.974;2022-09-09T16:55:11;2.85;;;1.20;;
51438;SDS011;38816;51.142;-0.974;2022-09-09T16:57:36;4.22;;;1.10;;
51438;SDS011;38816;51.142;-0.974;2022-09-09T17:00:03;2.22;;;1.20;;
51438;SDS011;38816;51.142;-0.974;2022-09-09T17:02:30;2.28;;;1.08;;
51438;SDS011;38816;51.142;-0.974;2022-09-09T17:04:56;3.03;;;1.27;;
51438;SDS011;38816;51.142;-0.974;2022-09-09T17:07:21;4.38;;;1.80;;
51438;SDS011;38816;51.142;-0.974;2022-09-09T17:09:47;5.43;;;1.33;;
51438;SDS011;38816;51.142;-0.974;2022-09-09T17:12:13;2.83;;;1.02;;
51438;SDS011;38816;51.142;-0.974;2022-09-09T17:14:38;4.85;;;1.50;;